Time;durP1;ratioP1;P1;durP2;ratioP2;P2;SDS_P1;SDS_P2;PMS_P1;PMS_P2;Temp;Humidity;BMP_temperature;BMP_pressure;BME280_temperature;BME280_humidity;BME280_pressure;Samples;Min_cycle;Max_cycle;Signal;HPM_P1;HPM_P2
2021/03/03 00:02:19;;;;;;;20.25;12.27;;;;;;;;;;4919602;29;20189;-72
2021/03/03 00:04:45;;;;;;;24.58;13.38;;;;;;;;;;4935465;29;20075;-70
2021/03/03 00:07:13;;;;;;;28.95;13.20;;;;;;;;;;4934466;29;20055;-71
2021/03/03 00:09:39;;;;;;;21.40;11.68;;;;;;;;;;4935030;29;20052;-71
2021/03/03 00:12:06;;;;;;;21.50;12.88;;;;;;;;;;4936365;29;20126;-71
2021/03/03 00:14:32;;;;;;;25.70;13.10;;;;;;;;;;4936461;29;20431;-71
2021/03/03 00:16:58;;;;;;;26.13;13.60;;;;;;;;;;4935621;29;20134;-71
2021/03/03 00:19:24;;;;;;;26.73;13.25;;;;;;;;;;4936304;29;20399;-71
2021/03/03 00:21:50;;;;;;;22.67;12.02;;;;;;;;;;4935029;29;20470;-71
2021/03/03 00:24:16;;;;;;;24.95;12.32;;;;;;;;;;4934956;29;20115;-71
2021/03/03 00:26:42;;;;;;;23.60;13.60;;;;;;;;;;4935632;29;20066;-71
2021/03/03 00:29:08;;;;;;;26.63;13.40;;;;;;;;;;4934590;29;20514;-71
2021/03/03 00:31:34;;;;;;;24.70;13.18;;;;;;;;;;4936068;29;20122;-71
2021/03/03 00:34:01;;;;;;;22.48;13.13;;;;;;;;;;4935390;29;20051;-71
2021/03/03 00:36:27;;;;;;;28.80;13.75;;;;;;;;;;4934910;29;20051;-71
2021/03/03 00:38:53;;;;;;;27.70;12.75;;;;;;;;;;4934671;29;20060;-71
2021/03/03 00:41:19;;;;;;;26.48;13.52;;;;;;;;;;4936108;29;20444;-71
2021/03/03 00:43:45;;;;;;;24.75;12.77;;;;;;;;;;4935881;29;20055;-71
2021/03/03 00:46:11;;;;;;;26.30;13.48;;;;;;;;;;4934970;29;20517;-71
2021/03/03 00:48:37;;;;;;;24.27;13.80;;;;;;;;;;4934417;29;20055;-70
2021/03/03 00:51:04;;;;;;;26.45;13.45;;;;;;;;;;4918674;29;20083;-71
2021/03/03 00:53:30;;;;;;;24.58;13.48;;;;;;;;;;4934562;29;20051;-71
2021/03/03 00:55:56;;;;;;;25.92;13.50;;;;;;;;;;4933543;29;20098;-71
2021/03/03 00:58:22;;;;;;;24.75;13.63;;;;;;;;;;4935499;29;20091;-71
2021/03/03 01:00:48;;;;;;;25.20;14.20;;;;;;;;;;4935453;29;20085;-71
2021/03/03 01:03:14;;;;;;;27.17;13.88;;;;;;;;;;4934181;29;20499;-70
2021/03/03 01:05:41;;;;;;;26.67;14.40;;;;;;;;;;4933642;29;20056;-71
2021/03/03 01:08:08;;;;;;;26.77;14.75;;;;;;;;;;4902696;29;20048;-71
2021/03/03 01:10:34;;;;;;;29.10;14.88;;;;;;;;;;4934109;29;20052;-71
2021/03/03 01:13:00;;;;;;;28.10;14.43;;;;;;;;;;4934037;29;20125;-71
2021/03/03 01:15:27;;;;;;;26.23;13.60;;;;;;;;;;4917872;29;20056;-71
2021/03/03 01:17:59;;;;;;;25.52;14.13;;;;;;;;;;4933951;29;20052;-70
2021/03/03 01:20:29;;;;;;;29.75;13.60;;;;;;;;;;4933872;29;20110;-71
2021/03/03 01:22:56;;;;;;;26.60;14.90;;;;;;;;;;4918095;29;20059;-71
2021/03/03 01:25:22;;;;;;;24.40;14.15;;;;;;;;;;4933300;29;20066;-71
2021/03/03 01:27:48;;;;;;;31.40;15.30;;;;;;;;;;4917978;29;20492;-71
2021/03/03 01:30:15;;;;;;;26.30;14.70;;;;;;;;;;4917894;29;20059;-71
2021/03/03 01:32:41;;;;;;;27.23;15.00;;;;;;;;;;4933769;29;20051;-71
2021/03/03 01:35:08;;;;;;;28.05;14.38;;;;;;;;;;4933335;29;20427;-71
2021/03/03 01:37:34;;;;;;;27.10;14.13;;;;;;;;;;4933479;29;20052;-71
2021/03/03 01:40:01;;;;;;;32.85;15.50;;;;;;;;;;4902241;29;20051;-71
2021/03/03 01:42:28;;;;;;;23.10;13.00;;;;;;;;;;4933494;29;20134;-71
2021/03/03 01:44:54;;;;;;;23.13;14.00;;;;;;;;;;4933760;29;20052;-71
2021/03/03 01:47:20;;;;;;;24.95;14.07;;;;;;;;;;4932360;29;20111;-71
2021/03/03 01:49:46;;;;;;;26.83;13.75;;;;;;;;;;4917780;29;20134;-71
2021/03/03 01:52:13;;;;;;;25.50;14.07;;;;;;;;;;4933455;29;20059;-71
2021/03/03 01:54:39;;;;;;;26.33;14.20;;;;;;;;;;4933610;29;20051;-71
2021/03/03 01:57:06;;;;;;;29.50;15.13;;;;;;;;;;4932573;29;20059;-71
2021/03/03 01:59:32;;;;;;;30.35;16.15;;;;;;;;;;4933637;29;20491;-71
2021/03/03 02:01:58;;;;;;;27.38;15.23;;;;;;;;;;4934667;29;20119;-70
2021/03/03 02:04:25;;;;;;;23.88;14.43;;;;;;;;;;4917586;29;20071;-70
2021/03/03 02:06:59;;;;;;;25.60;14.77;;;;;;;;;;4932533;29;20080;-70
2021/03/03 02:09:36;;;;;;;29.25;15.63;;;;;;;;;;4917916;29;20047;-70
2021/03/03 02:12:06;;;;;;;29.15;16.17;;;;;;;;;;4933139;29;20055;-70
2021/03/03 02:14:32;;;;;;;25.73;14.50;;;;;;;;;;4917758;29;20107;-70
2021/03/03 02:16:58;;;;;;;23.73;14.13;;;;;;;;;;4916928;29;20052;-70
2021/03/03 02:19:36;;;;;;;22.42;13.82;;;;;;;;;;4917420;29;20058;-70
2021/03/03 02:22:50;;;;;;;27.05;14.90;;;;;;;;;;4917510;29;20474;-70
2021/03/03 02:25:21;;;;;;;;;;;;;;;;;;4930141;29;20083;-70
2021/03/03 02:27:47;;;;;;;26.05;14.43;;;;;;;;;;4933390;29;19978;-70
2021/03/03 02:30:13;;;;;;;27.77;14.27;;;;;;;;;;4933109;29;20127;-70
2021/03/03 02:32:40;;;;;;;25.77;14.93;;;;;;;;;;4917479;29;20067;-70
2021/03/03 02:35:08;;;;;;;28.02;15.40;;;;;;;;;;4901480;29;20110;-70
2021/03/03 02:37:35;;;;;;;26.90;15.05;;;;;;;;;;4917365;29;20047;-69
2021/03/03 02:40:04;;;;;;;23.70;13.98;;;;;;;;;;4917241;29;20107;-69
2021/03/03 02:42:30;;;;;;;28.20;15.15;;;;;;;;;;4917646;29;20048;-71
2021/03/03 02:44:56;;;;;;;28.42;14.95;;;;;;;;;;4934005;29;20102;-70
2021/03/03 02:47:23;;;;;;;26.35;14.38;;;;;;;;;;4932197;29;20059;-70
2021/03/03 02:49:49;;;;;;;28.42;15.30;;;;;;;;;;4933027;29;20062;-69
2021/03/03 02:52:15;;;;;;;28.40;16.83;;;;;;;;;;4932805;29;20110;-70
2021/03/03 02:54:42;;;;;;;28.58;16.30;;;;;;;;;;4934133;29;20052;-69
2021/03/03 02:57:09;;;;;;;23.80;14.45;;;;;;;;;;4933080;29;20097;-70
2021/03/03 02:59:37;;;;;;;26.15;16.30;;;;;;;;;;4935989;29;20446;-70
2021/03/03 03:02:07;;;;;;;32.90;15.48;;;;;;;;;;4936298;29;20059;-69
2021/03/03 03:04:36;;;;;;;26.63;14.18;;;;;;;;;;4920970;29;20056;-70
2021/03/03 03:07:08;;;;;;;28.63;16.05;;;;;;;;;;4920037;29;20063;-69
2021/03/03 03:09:34;;;;;;;28.70;15.10;;;;;;;;;;4920499;29;20043;-70
2021/03/03 03:12:00;;;;;;;29.27;16.00;;;;;;;;;;4920400;29;20495;-70
2021/03/03 03:14:27;;;;;;;25.65;14.80;;;;;;;;;;4920632;29;20051;-70
2021/03/03 03:16:55;;;;;;;28.27;15.05;;;;;;;;;;4919876;29;20474;-70
2021/03/03 03:19:41;;;;;;;26.17;13.70;;;;;;;;;;4920085;29;20079;-70
2021/03/03 03:22:09;;;;;;;24.33;13.50;;;;;;;;;;4920287;29;20052;-70
2021/03/03 03:24:36;;;;;;;26.73;13.65;;;;;;;;;;4920217;29;20086;-70
2021/03/03 03:27:02;;;;;;;23.13;14.73;;;;;;;;;;4935239;29;20123;-70
2021/03/03 03:29:28;;;;;;;24.25;14.10;;;;;;;;;;4935919;29;20056;-70
2021/03/03 03:31:54;;;;;;;28.10;14.85;;;;;;;;;;4937168;29;20127;-70
2021/03/03 03:34:21;;;;;;;25.95;14.43;;;;;;;;;;4935843;29;20055;-70
2021/03/03 03:36:47;;;;;;;27.98;15.68;;;;;;;;;;4936501;29;20400;-70
2021/03/03 03:39:14;;;;;;;30.15;15.48;;;;;;;;;;4919854;29;20111;-70
2021/03/03 03:41:41;;;;;;;28.02;15.65;;;;;;;;;;4920113;29;20107;-70
2021/03/03 03:44:09;;;;;;;31.55;15.85;;;;;;;;;;4904320;29;20083;-70
2021/03/03 03:46:35;;;;;;;25.27;15.07;;;;;;;;;;4919597;29;20102;-70
2021/03/03 03:49:01;;;;;;;27.92;14.98;;;;;;;;;;4919871;29;20052;-70
2021/03/03 03:51:28;;;;;;;26.75;15.02;;;;;;;;;;4919524;29;20063;-70
2021/03/03 03:53:54;;;;;;;26.17;14.18;;;;;;;;;;4919832;29;20055;-70
2021/03/03 03:56:20;;;;;;;25.92;14.85;;;;;;;;;;4919095;29;20088;-70
2021/03/03 03:58:46;;;;;;;27.88;15.48;;;;;;;;;;4919631;29;20475;-71
2021/03/03 04:01:12;;;;;;;28.77;15.27;;;;;;;;;;4936475;29;20154;-71
2021/03/03 04:03:38;;;;;;;27.92;15.90;;;;;;;;;;4935467;29;20055;-70
2021/03/03 04:06:04;;;;;;;24.50;14.30;;;;;;;;;;4935808;29;20047;-70
2021/03/03 04:08:31;;;;;;;27.92;15.13;;;;;;;;;;4918969;29;20090;-69
2021/03/03 04:10:57;;;;;;;28.80;16.42;;;;;;;;;;4936302;29;20080;-69
2021/03/03 04:13:23;;;;;;;26.45;15.23;;;;;;;;;;4935289;29;20103;-69
2021/03/03 04:15:49;;;;;;;27.60;15.85;;;;;;;;;;4934482;29;20055;-70
2021/03/03 04:18:16;;;;;;;25.65;14.38;;;;;;;;;;4936417;29;20111;-70
2021/03/03 04:20:42;;;;;;;27.55;14.73;;;;;;;;;;4929232;23;20111;-72
2021/03/03 04:23:09;;;;;;;28.48;14.30;;;;;;;;;;4917215;29;20052;-72
2021/03/03 04:25:36;;;;;;;27.88;14.07;;;;;;;;;;4916410;29;20507;-72
2021/03/03 04:28:06;;;;;;;29.02;14.50;;;;;;;;;;4915581;29;20095;-72
2021/03/03 04:30:33;;;;;;;25.17;14.98;;;;;;;;;;4912561;29;20100;-72
2021/03/03 04:33:09;;;;;;;24.33;13.70;;;;;;;;;;4911662;29;20060;-72
2021/03/03 04:35:36;;;;;;;28.85;15.40;;;;;;;;;;4911893;29;20199;-72
2021/03/03 04:38:02;;;;;;;27.30;16.45;;;;;;;;;;4897941;29;20096;-72
2021/03/03 04:40:28;;;;;;;26.67;14.93;;;;;;;;;;4912554;29;20056;-72
2021/03/03 04:42:54;;;;;;;30.08;13.82;;;;;;;;;;4897962;29;20492;-72
2021/03/03 04:45:20;;;;;;;27.42;14.98;;;;;;;;;;4897263;29;20144;-72
2021/03/03 04:47:46;;;;;;;27.25;14.82;;;;;;;;;;4897837;29;20076;-72
2021/03/03 04:50:12;;;;;;;26.88;15.40;;;;;;;;;;4897464;29;20518;-72
2021/03/03 04:52:39;;;;;;;25.45;14.23;;;;;;;;;;4912359;29;20052;-72
2021/03/03 04:55:05;;;;;;;28.95;15.57;;;;;;;;;;4897468;29;20080;-72
2021/03/03 04:57:32;;;;;;;25.60;15.80;;;;;;;;;;4911741;29;20056;-72
2021/03/03 04:59:58;;;;;;;29.27;16.05;;;;;;;;;;4896234;29;20100;-72
2021/03/03 05:02:25;;;;;;;28.02;15.20;;;;;;;;;;4897823;29;20516;-72
2021/03/03 05:04:51;;;;;;;23.60;14.13;;;;;;;;;;4912081;29;20103;-72
2021/03/03 05:07:17;;;;;;;27.15;15.25;;;;;;;;;;4896787;29;20111;-72
2021/03/03 05:09:43;;;;;;;26.42;15.02;;;;;;;;;;4896247;29;20044;-71
2021/03/03 05:12:09;;;;;;;27.88;15.13;;;;;;;;;;4911747;29;20056;-72
2021/03/03 05:14:35;;;;;;;27.50;14.20;;;;;;;;;;4897429;29;20107;-72
2021/03/03 05:17:02;;;;;;;24.65;14.50;;;;;;;;;;4895584;29;20080;-72
2021/03/03 05:19:28;;;;;;;27.38;14.60;;;;;;;;;;4896165;29;20460;-72
2021/03/03 05:21:54;;;;;;;27.23;15.18;;;;;;;;;;4911163;29;20508;-72
2021/03/03 05:24:20;;;;;;;26.80;15.27;;;;;;;;;;4911555;29;20104;-72
2021/03/03 05:26:47;;;;;;;28.30;15.43;;;;;;;;;;4856610;29;20491;-72
2021/03/03 05:29:13;;;;;;;28.23;14.63;;;;;;;;;;4895629;29;20108;-72
2021/03/03 05:31:39;;;;;;;26.92;14.70;;;;;;;;;;4886421;29;20080;-71
2021/03/03 05:34:05;;;;;;;24.08;14.15;;;;;;;;;;4894181;29;20058;-72
2021/03/03 05:36:31;;;;;;;24.80;14.68;;;;;;;;;;4900167;29;20056;-72
2021/03/03 05:38:57;;;;;;;29.85;16.45;;;;;;;;;;4894974;29;20044;-71
2021/03/03 05:41:25;;;;;;;30.85;16.35;;;;;;;;;;4895565;29;20401;-71
2021/03/03 05:43:52;;;;;;;27.48;14.45;;;;;;;;;;4895570;29;20419;-76
2021/03/03 05:46:18;;;;;;;27.90;16.10;;;;;;;;;;4910216;29;20056;-76
2021/03/03 05:48:49;;;;;;;29.55;15.32;;;;;;;;;;4910692;29;20100;-75
2021/03/03 05:51:15;;;;;;;24.85;15.07;;;;;;;;;;4910644;29;20052;-75
2021/03/03 05:53:42;;;;;;;28.40;15.52;;;;;;;;;;4896131;29;20555;-75
2021/03/03 05:56:09;;;;;;;32.05;17.15;;;;;;;;;;4909580;29;20104;-76
2021/03/03 05:58:39;;;;;;;28.83;16.27;;;;;;;;;;4910398;29;20049;-76
2021/03/03 06:01:06;;;;;;;28.73;16.17;;;;;;;;;;4908905;29;20083;-76
2021/03/03 06:03:32;;;;;;;34.08;19.02;;;;;;;;;;4888446;29;20512;-75
2021/03/03 06:05:59;;;;;;;28.15;15.98;;;;;;;;;;4909832;29;20063;-75
2021/03/03 06:08:26;;;;;;;32.05;17.58;;;;;;;;;;4895002;29;20052;-75
2021/03/03 06:10:53;;;;;;;36.15;18.13;;;;;;;;;;4914392;29;20049;-75
2021/03/03 06:13:20;;;;;;;32.80;17.98;;;;;;;;;;4900414;29;20056;-75
2021/03/03 06:15:48;;;;;;;40.63;18.17;;;;;;;;;;4882849;29;20045;-76
2021/03/03 06:18:15;;;;;;;32.38;17.85;;;;;;;;;;4894382;29;20074;-75
2021/03/03 06:20:49;;;;;;;31.23;16.08;;;;;;;;;;4894644;29;20086;-75
2021/03/03 06:23:21;;;;;;;33.25;17.58;;;;;;;;;;4909337;29;20084;-75
2021/03/03 06:26:03;;;;;;;36.13;18.23;;;;;;;;;;4896494;29;20063;-75
2021/03/03 06:28:44;;;;;;;35.70;17.20;;;;;;;;;;4897698;29;20415;-75
2021/03/03 06:31:30;;;;;;;30.52;17.08;;;;;;;;;;4896812;29;20101;-75
2021/03/03 06:34:13;;;;;;;32.80;16.30;;;;;;;;;;4914680;29;20123;-75
2021/03/03 06:36:58;;;;;;;27.60;16.42;;;;;;;;;;4913973;29;20476;-75
2021/03/03 06:39:32;;;;;;;30.30;17.00;;;;;;;;;;4899572;29;20052;-76
2021/03/03 06:42:00;;;;;;;25.80;15.00;;;;;;;;;;4901985;29;20530;-75
2021/03/03 06:44:44;;;;;;;28.65;16.20;;;;;;;;;;4915333;29;20053;-75
2021/03/03 06:47:10;;;;;;;30.23;17.05;;;;;;;;;;4916541;29;20103;-76
2021/03/03 06:49:36;;;;;;;28.60;16.13;;;;;;;;;;4901764;29;20052;-76
2021/03/03 06:52:03;;;;;;;28.83;15.00;;;;;;;;;;4898978;29;20124;-75
2021/03/03 06:54:29;;;;;;;26.58;15.77;;;;;;;;;;4900554;29;20061;-76
2021/03/03 06:56:56;;;;;;;27.77;15.45;;;;;;;;;;4898560;29;20497;-76
2021/03/03 06:59:25;;;;;;;30.98;16.30;;;;;;;;;;4914576;29;20063;-75
2021/03/03 07:01:56;;;;;;;29.08;15.57;;;;;;;;;;4900310;29;20100;-76
2021/03/03 07:04:22;;;;;;;26.90;15.48;;;;;;;;;;4898739;29;20056;-75
2021/03/03 07:06:48;;;;;;;35.05;16.40;;;;;;;;;;4899449;29;20124;-75
2021/03/03 07:09:14;;;;;;;31.73;16.85;;;;;;;;;;4898490;29;20044;-75
2021/03/03 07:11:42;;;;;;;25.13;15.73;;;;;;;;;;4914252;29;20117;-75
2021/03/03 07:14:26;;;;;;;29.00;15.95;;;;;;;;;;4898481;29;20108;-76
2021/03/03 07:17:02;;;;;;;34.75;17.33;;;;;;;;;;4913596;29;20056;-76
2021/03/03 07:19:29;;;;;;;32.55;17.48;;;;;;;;;;4899567;29;20108;-75
2021/03/03 07:21:56;;;;;;;34.17;16.35;;;;;;;;;;4914393;29;20048;-76
2021/03/03 07:24:25;;;;;;;34.15;17.55;;;;;;;;;;4900079;29;20059;-76
2021/03/03 07:26:52;;;;;;;30.40;16.75;;;;;;;;;;4898328;29;20087;-75
2021/03/03 07:29:18;;;;;;;27.23;17.30;;;;;;;;;;4913995;29;20136;-75
2021/03/03 07:31:44;;;;;;;30.55;17.10;;;;;;;;;;4914520;29;20112;-76
2021/03/03 07:34:11;;;;;;;33.63;17.67;;;;;;;;;;4914135;29;20049;-75
2021/03/03 07:36:38;;;;;;;31.15;17.23;;;;;;;;;;4898444;29;20052;-72
2021/03/03 07:39:08;;;;;;;32.30;17.35;;;;;;;;;;4883550;29;20079;-75
2021/03/03 07:41:53;;;;;;;29.58;16.30;;;;;;;;;;4870363;29;20052;-70
2021/03/03 07:44:20;;;;;;;26.98;16.02;;;;;;;;;;4904103;29;20100;-73
2021/03/03 07:46:48;;;;;;;30.88;16.38;;;;;;;;;;4897170;29;20052;-72
2021/03/03 07:49:24;;;;;;;29.00;16.58;;;;;;;;;;4896244;29;20637;-72
2021/03/03 07:51:50;;;;;;;30.50;16.35;;;;;;;;;;4912763;29;20401;-74
2021/03/03 07:54:16;;;;;;;26.25;15.25;;;;;;;;;;4912133;29;20056;-74
2021/03/03 07:56:42;;;;;;;35.35;16.35;;;;;;;;;;4911500;29;20120;-73
2021/03/03 07:59:09;;;;;;;25.50;15.48;;;;;;;;;;4896004;29;20052;-71
2021/03/03 08:01:36;;;;;;;31.35;16.27;;;;;;;;;;4886898;29;20085;-73
2021/03/03 08:04:02;;;;;;;27.92;15.52;;;;;;;;;;4911758;29;20059;-74
2021/03/03 08:06:34;;;;;;;29.23;16.23;;;;;;;;;;4868188;29;20063;-72
2021/03/03 08:09:06;;;;;;;29.25;15.40;;;;;;;;;;4897422;29;20436;-75
2021/03/03 08:11:34;;;;;;;28.67;15.13;;;;;;;;;;4897644;29;20469;-74
2021/03/03 08:14:01;;;;;;;27.58;15.90;;;;;;;;;;4897735;29;20048;-76
2021/03/03 08:16:27;;;;;;;26.38;15.30;;;;;;;;;;4888389;29;20053;-74
2021/03/03 08:18:56;;;;;;;28.58;15.88;;;;;;;;;;4897588;29;20052;-74
2021/03/03 08:21:23;;;;;;;35.65;16.05;;;;;;;;;;4886388;29;20083;-75
2021/03/03 08:23:50;;;;;;;30.00;15.00;;;;;;;;;;4897432;29;20052;-74
2021/03/03 08:26:16;;;;;;;26.70;15.38;;;;;;;;;;4895355;29;20056;-74
2021/03/03 08:28:51;;;;;;;24.15;14.40;;;;;;;;;;4893907;29;20056;-74
2021/03/03 08:31:20;;;;;;;24.42;15.05;;;;;;;;;;4888059;29;20049;-75
2021/03/03 08:33:49;;;;;;;26.42;15.20;;;;;;;;;;4897131;29;20135;-73
2021/03/03 08:36:19;;;;;;;29.13;16.63;;;;;;;;;;4896519;29;20088;-73
2021/03/03 08:38:48;;;;;;;25.95;16.42;;;;;;;;;;4896348;29;20452;-70
2021/03/03 08:41:18;;;;;;;28.15;15.75;;;;;;;;;;4893648;29;20112;-70
2021/03/03 08:43:48;;;;;;;24.38;16.08;;;;;;;;;;4896720;29;20048;-72
2021/03/03 08:46:22;;;;;;;30.05;16.42;;;;;;;;;;4895839;29;20056;-72
2021/03/03 08:48:57;;;;;;;24.80;15.95;;;;;;;;;;4897029;29;20547;-71
2021/03/03 08:51:29;;;;;;;31.73;16.42;;;;;;;;;;4896578;29;20056;-73
2021/03/03 08:54:02;;;;;;;30.67;14.87;;;;;;;;;;4896840;29;20056;-73
2021/03/03 08:56:40;;;;;;;25.65;15.65;;;;;;;;;;4896017;29;20068;-74
2021/03/03 08:59:10;;;;;;;29.45;15.52;;;;;;;;;;4896480;29;20079;-72
2021/03/03 09:01:55;;;;;;;28.20;16.80;;;;;;;;;;4911204;29;20053;-72
2021/03/03 09:04:25;;;;;;;26.40;15.77;;;;;;;;;;4896939;29;20059;-72
2021/03/03 09:06:53;;;;;;;26.77;16.00;;;;;;;;;;4885047;29;20104;-70
2021/03/03 09:09:20;;;;;;;28.90;16.08;;;;;;;;;;4892643;29;20052;-74
2021/03/03 09:11:46;;;;;;;28.45;16.67;;;;;;;;;;4896020;29;20464;-72
2021/03/03 09:14:13;;;;;;;28.33;15.98;;;;;;;;;;4894939;29;20052;-72
2021/03/03 09:16:53;;;;;;;24.30;15.95;;;;;;;;;;5096080;27;20359;-70
2021/03/03 09:19:20;;;;;;;30.67;17.23;;;;;;;;;;5087239;28;20461;-75
2021/03/03 09:21:46;;;;;;;26.58;15.70;;;;;;;;;;5086468;28;20047;-73
2021/03/03 09:24:13;;;;;;;30.15;16.33;;;;;;;;;;5087857;28;20071;-74
2021/03/03 09:26:39;;;;;;;26.55;16.05;;;;;;;;;;5087180;28;20495;-74
2021/03/03 09:29:06;;;;;;;32.65;16.77;;;;;;;;;;5087215;28;20048;-74
2021/03/03 09:31:37;;;;;;;34.92;18.25;;;;;;;;;;5087385;28;20056;-75
2021/03/03 09:34:04;;;;;;;30.13;17.02;;;;;;;;;;5085975;28;20524;-73
2021/03/03 09:36:30;;;;;;;27.92;15.85;;;;;;;;;;5084373;28;20068;-71
2021/03/03 09:38:58;;;;;;;24.30;16.42;;;;;;;;;;5087696;28;20449;-72
2021/03/03 09:41:24;;;;;;;24.60;15.43;;;;;;;;;;5087005;28;20052;-71
2021/03/03 09:44:20;;;;;;;30.42;16.67;;;;;;;;;;5085191;28;20051;-73
2021/03/03 09:47:01;;;;;;;30.77;16.30;;;;;;;;;;5054317;28;20091;-70
2021/03/03 09:49:29;;;;;;;23.90;15.25;;;;;;;;;;5076673;28;20436;-70
2021/03/03 09:51:57;;;;;;;27.17;15.50;;;;;;;;;;5078117;28;20040;-72
2021/03/03 09:54:31;;;;;;;29.02;15.80;;;;;;;;;;5079589;28;20075;-71
2021/03/03 09:57:02;;;;;;;26.15;15.68;;;;;;;;;;5074173;28;20052;-71
2021/03/03 09:59:29;;;;;;;27.80;15.43;;;;;;;;;;5077613;28;20098;-73
2021/03/03 10:01:56;;;;;;;28.73;15.90;;;;;;;;;;5068749;28;20620;-73
2021/03/03 10:04:22;;;;;;;26.25;16.15;;;;;;;;;;5086522;28;20052;-73
2021/03/03 10:06:48;;;;;;;22.17;14.80;;;;;;;;;;5068477;28;20113;-72
2021/03/03 10:09:14;;;;;;;24.98;15.23;;;;;;;;;;5085753;28;20048;-73
2021/03/03 10:11:42;;;;;;;24.75;15.63;;;;;;;;;;5086100;28;20074;-72
2021/03/03 10:14:08;;;;;;;22.88;14.90;;;;;;;;;;5078806;28;20080;-73
2021/03/03 10:16:35;;;;;;;25.63;14.52;;;;;;;;;;5085001;28;20037;-71
2021/03/03 10:19:04;;;;;;;26.60;14.32;;;;;;;;;;5086476;28;20044;-75
2021/03/03 10:21:32;;;;;;;22.92;14.85;;;;;;;;;;5070809;22;20379;-68
2021/03/03 10:23:58;;;;;;;25.38;14.05;;;;;;;;;;5053125;28;20095;-67
2021/03/03 10:26:40;;;;;;;28.38;14.57;;;;;;;;;;5065054;28;20406;-70
2021/03/03 10:29:07;;;;;;;26.70;16.02;;;;;;;;;;5042127;28;20041;-70
2021/03/03 10:31:33;;;;;;;25.70;15.07;;;;;;;;;;5057896;28;20045;-68
2021/03/03 10:34:11;;;;;;;22.35;14.95;;;;;;;;;;5061182;28;20056;-69
2021/03/03 10:36:42;;;;;;;25.30;15.45;;;;;;;;;;5013177;28;20049;-71
2021/03/03 10:39:09;;;;;;;28.13;14.57;;;;;;;;;;5059832;28;20122;-70
2021/03/03 10:41:36;;;;;;;23.90;15.13;;;;;;;;;;5060923;28;20121;-70
2021/03/03 10:44:04;;;;;;;23.55;15.73;;;;;;;;;;5059298;28;20136;-70
2021/03/03 10:46:30;;;;;;;27.48;15.13;;;;;;;;;;5060630;28;20486;-69
2021/03/03 10:49:10;;;;;;;25.98;16.20;;;;;;;;;;5055539;28;20138;-71
2021/03/03 10:51:38;;;;;;;23.55;16.17;;;;;;;;;;5060532;28;20091;-69
2021/03/03 10:54:05;;;;;;;23.63;15.98;;;;;;;;;;5059659;28;20110;-73
2021/03/03 10:56:34;;;;;;;22.73;15.73;;;;;;;;;;5056272;28;20487;-72
2021/03/03 10:59:02;;;;;;;24.75;14.95;;;;;;;;;;5060690;28;20462;-73
2021/03/03 11:01:46;;;;;;;27.23;15.43;;;;;;;;;;5058637;28;20045;-73
2021/03/03 11:04:13;;;;;;;24.20;14.70;;;;;;;;;;5043035;28;20044;-70
2021/03/03 11:06:40;;;;;;;25.55;15.82;;;;;;;;;;5059202;28;20045;-71
2021/03/03 11:09:10;;;;;;;25.92;15.13;;;;;;;;;;5041426;28;20103;-71
2021/03/03 11:12:06;;;;;;;24.27;14.95;;;;;;;;;;5061047;28;20087;-71
2021/03/03 11:14:33;;;;;;;21.75;14.82;;;;;;;;;;5040390;28;20057;-71
2021/03/03 11:17:01;;;;;;;20.33;14.15;;;;;;;;;;5054412;28;20059;-72
2021/03/03 11:19:28;;;;;;;22.30;15.50;;;;;;;;;;5060318;28;20072;-70
2021/03/03 11:21:57;;;;;;;25.95;15.50;;;;;;;;;;5058679;28;20483;-70
2021/03/03 11:24:24;;;;;;;29.45;16.63;;;;;;;;;;5060517;28;20048;-70
2021/03/03 11:26:50;;;;;;;25.92;15.20;;;;;;;;;;5057874;28;20138;-71
2021/03/03 11:29:17;;;;;;;27.35;14.70;;;;;;;;;;5059099;28;20251;-71
2021/03/03 11:31:44;;;;;;;24.38;14.55;;;;;;;;;;5058656;28;20048;-70
2021/03/03 11:34:10;;;;;;;29.63;16.70;;;;;;;;;;5059211;28;20080;-70
2021/03/03 11:36:37;;;;;;;25.92;16.40;;;;;;;;;;5059846;28;20048;-69
2021/03/03 11:39:04;;;;;;;23.63;14.82;;;;;;;;;;5057716;28;20049;-69
2021/03/03 11:41:30;;;;;;;21.90;14.32;;;;;;;;;;5059183;28;20122;-70
2021/03/03 11:43:56;;;;;;;31.52;15.93;;;;;;;;;;5058637;28;20056;-70
2021/03/03 11:46:22;;;;;;;21.10;14.40;;;;;;;;;;5058820;28;20036;-69
2021/03/03 11:48:49;;;;;;;25.08;14.75;;;;;;;;;;5058291;28;20056;-69
2021/03/03 11:51:15;;;;;;;21.90;13.65;;;;;;;;;;5059647;28;20098;-70
2021/03/03 11:53:41;;;;;;;27.60;15.23;;;;;;;;;;5057839;28;20048;-71
2021/03/03 11:56:07;;;;;;;21.50;14.38;;;;;;;;;;5058898;28;20049;-71
2021/03/03 11:58:34;;;;;;;21.33;13.57;;;;;;;;;;5036055;28;20068;-70
2021/03/03 12:01:04;;;;;;;24.80;14.55;;;;;;;;;;5058298;28;20562;-71
2021/03/03 12:03:31;;;;;;;25.67;15.77;;;;;;;;;;5060426;28;20094;-70
2021/03/03 12:05:58;;;;;;;20.60;13.45;;;;;;;;;;5058812;28;20418;-70
2021/03/03 12:08:24;;;;;;;24.88;14.68;;;;;;;;;;5060248;28;20053;-69
2021/03/03 12:10:50;;;;;;;26.63;15.25;;;;;;;;;;5059515;28;20049;-70
2021/03/03 12:13:16;;;;;;;22.45;15.00;;;;;;;;;;5063724;28;20045;-69
2021/03/03 12:15:42;;;;;;;21.63;15.07;;;;;;;;;;5059929;28;20041;-73
2021/03/03 12:18:09;;;;;;;22.85;15.02;;;;;;;;;;5058770;28;20053;-74
2021/03/03 12:20:35;;;;;;;20.10;13.65;;;;;;;;;;5058925;28;20095;-70
2021/03/03 12:23:02;;;;;;;21.58;14.15;;;;;;;;;;5058245;28;20082;-72
2021/03/03 12:25:28;;;;;;;25.70;14.35;;;;;;;;;;5040176;28;20040;-71
2021/03/03 12:27:55;;;;;;;22.83;15.10;;;;;;;;;;5058543;28;20099;-73
2021/03/03 12:30:22;;;;;;;24.90;14.98;;;;;;;;;;5039993;28;20130;-73
2021/03/03 12:32:49;;;;;;;23.42;15.07;;;;;;;;;;5059044;28;20456;-71
2021/03/03 12:35:16;;;;;;;24.35;14.43;;;;;;;;;;5057124;28;20045;-72
2021/03/03 12:37:42;;;;;;;24.13;14.68;;;;;;;;;;5060325;28;20503;-72
2021/03/03 12:40:08;;;;;;;24.23;14.13;;;;;;;;;;5055566;28;20122;-74
2021/03/03 12:42:34;;;;;;;23.38;15.48;;;;;;;;;;5043506;28;20052;-72
2021/03/03 12:45:01;;;;;;;24.52;15.98;;;;;;;;;;5056930;28;20291;-72
2021/03/03 12:47:29;;;;;;;25.45;15.55;;;;;;;;;;5040743;28;20123;-73
2021/03/03 12:49:55;;;;;;;24.70;16.33;;;;;;;;;;5056807;28;20053;-74
2021/03/03 12:52:22;;;;;;;24.02;15.35;;;;;;;;;;5026176;28;20118;-73
2021/03/03 12:54:48;;;;;;;24.85;16.20;;;;;;;;;;5042111;28;20048;-73
2021/03/03 12:57:14;;;;;;;23.38;14.88;;;;;;;;;;5058551;28;20047;-74
2021/03/03 12:59:40;;;;;;;24.75;14.68;;;;;;;;;;5057331;28;20122;-73
2021/03/03 13:02:06;;;;;;;22.73;15.93;;;;;;;;;;5058908;28;20068;-73
2021/03/03 13:04:34;;;;;;;26.67;15.63;;;;;;;;;;5058137;28;20098;-74
2021/03/03 13:07:00;;;;;;;21.40;13.63;;;;;;;;;;5058162;28;20090;-71
2021/03/03 13:09:37;;;;;;;22.80;14.25;;;;;;;;;;5061274;28;20469;-73
2021/03/03 13:12:03;;;;;;;28.13;14.55;;;;;;;;;;5052627;28;20049;-73
2021/03/03 13:14:29;;;;;;;22.35;13.43;;;;;;;;;;5060660;28;20498;-70
2021/03/03 13:16:56;;;;;;;24.05;13.82;;;;;;;;;;5056181;28;20049;-75
2021/03/03 13:19:22;;;;;;;25.25;14.13;;;;;;;;;;5057978;28;20422;-70
2021/03/03 13:21:48;;;;;;;20.10;13.43;;;;;;;;;;5055889;28;20487;-70
2021/03/03 13:24:14;;;;;;;22.20;13.20;;;;;;;;;;5058357;28;20449;-73
2021/03/03 13:26:40;;;;;;;27.23;15.02;;;;;;;;;;5056191;28;20095;-70
2021/03/03 13:29:06;;;;;;;24.30;13.45;;;;;;;;;;5058189;28;20106;-71
2021/03/03 13:31:32;;;;;;;21.00;12.95;;;;;;;;;;5058762;28;20098;-71
2021/03/03 13:33:59;;;;;;;20.80;12.90;;;;;;;;;;5058094;28;20504;-73
2021/03/03 13:36:25;;;;;;;23.73;13.80;;;;;;;;;;5058605;28;20045;-73
2021/03/03 13:38:51;;;;;;;19.27;12.85;;;;;;;;;;5027802;28;20045;-70
2021/03/03 13:41:17;;;;;;;21.33;12.52;;;;;;;;;;5060223;28;20052;-72
2021/03/03 13:43:43;;;;;;;22.55;12.93;;;;;;;;;;5058099;28;20473;-71
2021/03/03 13:46:09;;;;;;;22.77;12.98;;;;;;;;;;5054358;28;20053;-73
2021/03/03 13:48:35;;;;;;;24.15;12.75;;;;;;;;;;5059889;28;20111;-72
2021/03/03 13:51:02;;;;;;;23.83;12.82;;;;;;;;;;5056971;28;20411;-71
2021/03/03 13:53:28;;;;;;;23.85;14.00;;;;;;;;;;5059762;28;20055;-71
2021/03/03 13:55:54;;;;;;;24.00;13.45;;;;;;;;;;5057635;28;20049;-72
2021/03/03 13:58:20;;;;;;;20.40;13.52;;;;;;;;;;5056725;28;20048;-69
2021/03/03 14:00:47;;;;;;;26.88;14.68;;;;;;;;;;5057544;28;20453;-72
2021/03/03 14:03:16;;;;;;;27.63;13.32;;;;;;;;;;5059978;28;20107;-72
2021/03/03 14:05:44;;;;;;;21.55;12.35;;;;;;;;;;5062999;28;20049;-71
2021/03/03 14:08:12;;;;;;;24.73;12.38;;;;;;;;;;5056167;28;20060;-72
2021/03/03 14:10:38;;;;;;;23.25;12.88;;;;;;;;;;5044039;28;20064;-72
2021/03/03 14:13:04;;;;;;;23.15;12.13;;;;;;;;;;5060110;28;20130;-72
2021/03/03 14:15:30;;;;;;;22.73;11.75;;;;;;;;;;5060402;28;20084;-73
2021/03/03 14:17:56;;;;;;;23.75;13.25;;;;;;;;;;5026490;28;20103;-73
2021/03/03 14:20:22;;;;;;;21.65;11.40;;;;;;;;;;5061303;28;20079;-74
2021/03/03 14:22:48;;;;;;;29.23;12.98;;;;;;;;;;5059717;28;20422;-73
2021/03/03 14:25:14;;;;;;;23.27;12.45;;;;;;;;;;5060773;28;20048;-72